Albany, New York
Traffic Map
Current Weather Conditions
Albany, New York
Scattered Clouds
Scattered Clouds
82°
Feels Like: 82°
Wind Chill: 82° Ceiling: Unl
Heat Index: 82° Visibility: 10mi
Dew Point: 55° Wind: 12mph
Humidity: 39% Direction: 320° (NW)
Pressure: 30.11in Gusts: 22mph
Raw Report DataKALB 291951Z 32010G19KT 10SM SCT060 28/13 A3011 RMK AO2 WSHFT 1904 SLP194 T02780128
Traffic Incident Summary
Active as of:
Severity:
Category:
InformationThere was an issue retrieving the traffic information for this location. Please try a different location or try again shortly.
Advertisements
Track Severe Weather on mobile